M I D A S
Marine Information and Data Acquisition System
Tripno 1879 of the Zeeleeuw from 2010-05-11 05:12:52 to 2010-05-11 15:59:13
Back to CruiseResearch ActivitiesStationsMapUnderway DataData graphs

EquipmentUnitsComment
TimeDGPSUTC
LatitudeDGPSDM.mWGS84
LongitudeDGPSDM.mWGS84
HeadingGyrodeg 
SOGDGPSknotsSpeed over ground
COGDGPSdegCourse over ground
DepthEcho soundermeters200 kHz
Missing or incorrect values are displayed as -999
Navigation data collected by the RV Zeeleeuw from 2010-05-11 04:58:16 to 2010-05-11 16:06:18
                                                                                    Next 1000 lines
Time Latitude Longitude Heading SOG COG Depth
2010-05-11 04:58:25 51°13.662 2°55.956 111.3 0.9 296 4.8
2010-05-11 04:58:30 51°13.663 2°55.952 111.5 1.5 290 4.9
2010-05-11 04:58:36 51°13.664 2°55.947 111.7 2 295 5.1
2010-05-11 04:58:40 51°13.665 2°55.944 111.9 2.4 292 -999
2010-05-11 04:58:47 51°13.667 2°55.936 111.9 2.7 295 -999
2010-05-11 04:58:52 51°13.669 2°55.93 112.2 3 294 -999
2010-05-11 04:58:58 51°13.671 2°55.922 112.6 3.3 295 -999
2010-05-11 04:59:04 51°13.674 2°55.913 113 3.6 296 -999
2010-05-11 04:59:09 51°13.676 2°55.906 113.3 3.9 294 -999
2010-05-11 04:59:14 51°13.678 2°55.898 112.8 4 294 -999
2010-05-11 04:59:19 51°13.68 2°55.889 111.7 4.2 291 -999
2010-05-11 04:59:24 51°13.682 2°55.88 110.4 4.3 290 -999
2010-05-11 04:59:29 51°13.684 2°55.871 109 4.3 289 -999
2010-05-11 04:59:34 51°13.686 2°55.862 108.1 4.2 288 -999
2010-05-11 04:59:39 51°13.688 2°55.853 107 4.2 287 -999
2010-05-11 04:59:44 51°13.69 2°55.844 106.2 4.2 286 -999
2010-05-11 04:59:49 51°13.691 2°55.836 105.3 4.1 286 -999
2010-05-11 04:59:54 51°13.693 2°55.827 103.7 4.1 286 -999
2010-05-11 04:59:59 51°13.694 2°55.818 102.2 4 284 -999
2010-05-11 05:00:04 51°13.695 2°55.81 100.6 3.9 282 -999
2010-05-11 05:00:09 51°13.696 2°55.802 99.4 3.8 282 -999
2010-05-11 05:00:14 51°13.697 2°55.794 97.9 3.6 281 -999
2010-05-11 05:00:19 51°13.698 2°55.787 96 3.4 280 -999
2010-05-11 05:00:24 51°13.699 2°55.779 94.7 3.3 278 -999
2010-05-11 05:00:29 51°13.699 2°55.773 93.2 2.9 279 11.5
2010-05-11 05:00:34 51°13.7 2°55.769 92.1 2.1 277 -999
2010-05-11 05:00:38 51°13.7 2°55.766 90.7 1.4 275 11
2010-05-11 05:00:44 51°13.7 2°55.764 86.8 1.1 282 11
2010-05-11 05:00:48 51°13.7 2°55.762 82.4 1 276 10.8
2010-05-11 05:00:53 51°13.7 2°55.76 78.2 0.9 274 10.8
2010-05-11 05:00:56 51°13.7 2°55.759 76.3 0.8 271 10.8
2010-05-11 05:01:03 51°13.7 2°55.757 72.4 0.7 279 11
2010-05-11 05:01:08 51°13.7 2°55.755 70.3 0.6 277 11.1
2010-05-11 05:01:12 51°13.701 2°55.755 68.2 0.4 298 10.8
2010-05-11 05:01:12 51°13.701 2°55.755 68.2 0.4 298 11.1
2010-05-11 05:01:24 51°13.701 2°55.755 62.3 0.4 -999 10.9
2010-05-11 05:01:29 51°13.702 2°55.755 59.4 0.5 21 10.8
2010-05-11 05:01:34 51°13.702 2°55.756 56.2 0.5 23 10.8
2010-05-11 05:01:39 51°13.703 2°55.756 52.5 0.5 15 -999
2010-05-11 05:02:02 51°13.702 2°55.752 41.3 1.1 233 10.8
2010-05-11 05:02:25 51°13.697 2°55.744 35.8 0.4 236 4.7
2010-05-11 05:02:31 51°13.698 2°55.743 32.5 0.3 300 -999
2010-05-11 05:02:49 51°13.701 2°55.743 19 0.6 5 -999
2010-05-11 05:02:49 51°13.701 2°55.743 19 0.6 5 -999
2010-05-11 05:03:03 51°13.704 2°55.742 8.1 1.2 350 11.1
2010-05-11 05:03:08 51°13.706 2°55.742 5.8 1.6 351 10.8
2010-05-11 05:03:08 51°13.706 2°55.742 5.8 1.6 351 10.8
2010-05-11 05:03:20 51°13.713 2°55.738 352.5 2.2 343 10.9
2010-05-11 05:03:42 51°13.733 2°55.723 334.9 5.1 331 10.6
2010-05-11 05:03:47 51°13.74 2°55.717 333.1 5.7 329 10.4
2010-05-11 05:03:52 51°13.747 2°55.71 332 6.4 330 10.2
2010-05-11 05:03:57 51°13.755 2°55.702 331.2 6.9 328 9.9
2010-05-11 05:04:02 51°13.764 2°55.693 330.8 7.3 329 9.7
2010-05-11 05:04:07 51°13.774 2°55.685 330.8 7.7 329 9.8
2010-05-11 05:04:12 51°13.783 2°55.676 330.8 8 329 9.8
2010-05-11 05:04:16 51°13.791 2°55.668 331.1 8.4 330 9.8
2010-05-11 05:04:21 51°13.802 2°55.659 331.9 8.6 331 10.2
2010-05-11 05:04:26 51°13.813 2°55.65 333.4 8.9 333 9.8
2010-05-11 05:04:31 51°13.824 2°55.641 334.7 9 334 9.8
2010-05-11 05:04:36 51°13.835 2°55.632 335.4 9.2 334 9.8
2010-05-11 05:04:40 51°13.845 2°55.626 336.2 9.3 335 9.7
2010-05-11 05:04:45 51°13.857 2°55.617 336.8 9.4 336 9.7
2010-05-11 05:04:51 51°13.872 2°55.608 338.7 9.5 339 9.7
2010-05-11 05:04:55 51°13.881 2°55.602 340.7 9.6 339 9.6
2010-05-11 05:05:00 51°13.894 2°55.594 342.3 9.7 342 9.7
2010-05-11 05:05:06 51°13.91 2°55.586 344.1 9.8 342 9.9
2010-05-11 05:05:11 51°13.922 2°55.579 343.9 9.8 340 9.8
2010-05-11 05:05:15 51°13.932 2°55.573 342.3 9.9 339 9.8
2010-05-11 05:05:20 51°13.945 2°55.565 340.7 9.9 337 9.7
2010-05-11 05:05:26 51°13.96 2°55.554 339 9.9 337 9.7
2010-05-11 05:05:31 51°13.973 2°55.545 338 10 335 9.7
2010-05-11 05:05:35 51°13.983 2°55.537 337.1 10 334 9.7
2010-05-11 05:05:40 51°13.995 2°55.527 336.4 10 334 9.9
2010-05-11 05:05:45 51°14.007 2°55.517 335.4 10 333 9.6
2010-05-11 05:05:51 51°14.022 2°55.505 334.7 9.9 333 9.6
2010-05-11 05:05:56 51°14.035 2°55.495 335 9.9 334 9.6
2010-05-11 05:06:00 51°14.044 2°55.487 335.2 9.9 333 9.5
2010-05-11 05:06:04 51°14.054 2°55.479 334.7 9.9 332 9.6
2010-05-11 05:06:11 51°14.071 2°55.465 334.9 9.9 334 9.7
2010-05-11 05:06:16 51°14.083 2°55.456 335.8 9.9 334 9.7
2010-05-11 05:06:20 51°14.093 2°55.448 336.4 9.9 334 9.7
2010-05-11 05:06:25 51°14.105 2°55.438 336.1 9.9 333 9.6
2010-05-11 05:06:30 51°14.117 2°55.428 335.3 9.9 332 9.6
2010-05-11 05:06:36 51°14.132 2°55.415 334.5 9.9 331 9.6
2010-05-11 05:06:40 51°14.141 2°55.407 333.8 9.8 331 9.5
2010-05-11 05:06:45 51°14.153 2°55.396 333.4 9.9 331 9.5
2010-05-11 05:06:51 51°14.168 2°55.383 333.3 9.9 331 9.5
2010-05-11 05:06:56 51°14.18 2°55.373 333.4 9.8 332 9.6
2010-05-11 05:07:00 51°14.189 2°55.365 334 9.9 333 9.5
2010-05-11 05:07:05 51°14.202 2°55.356 334.7 9.9 334 9.5
2010-05-11 05:07:11 51°14.216 2°55.344 336.1 9.9 335 9.5
2010-05-11 05:07:16 51°14.229 2°55.334 336.5 9.9 334 9.5
2010-05-11 05:07:20 51°14.238 2°55.327 336.6 9.9 335 9.6
2010-05-11 05:07:25 51°14.251 2°55.318 337.2 9.8 335 9.2
2010-05-11 05:07:31 51°14.266 2°55.307 338.2 9.8 336 9.2
2010-05-11 05:07:36 51°14.278 2°55.298 338.3 9.8 335 9.4
2010-05-11 05:07:40 51°14.288 2°55.291 338.1 9.9 335 9.3
2010-05-11 05:07:45 51°14.3 2°55.281 337.8 9.9 334 9.5
2010-05-11 05:07:51 51°14.315 2°55.27 337.3 9.9 334 9.6
2010-05-11 05:07:56 51°14.328 2°55.26 336.7 9.9 333 9
2010-05-11 05:08:00 51°14.337 2°55.252 336 9.9 332 8.7
2010-05-11 05:08:04 51°14.347 2°55.244 335.3 9.9 331 9.5
2010-05-11 05:08:11 51°14.364 2°55.229 334.7 9.9 330 9.5
2010-05-11 05:08:16 51°14.376 2°55.217 333.2 10 328 9.4
2010-05-11 05:08:20 51°14.385 2°55.207 330.1 10.2 325 9.7
2010-05-11 05:08:24 51°14.394 2°55.196 328.1 10.3 324 9.7
2010-05-11 05:08:30 51°14.408 2°55.179 327.5 10.5 323 9.8
2010-05-11 05:08:36 51°14.421 2°55.161 325.4 10.6 320 9.9
2010-05-11 05:08:40 51°14.43 2°55.149 323 10.7 319 9.6
2010-05-11 05:08:45 51°14.442 2°55.133 321.5 10.9 320 9.6
2010-05-11 05:08:51 51°14.455 2°55.113 320.1 11 316 9
2010-05-11 05:08:56 51°14.467 2°55.097 320.2 11.2 320 9.5
2010-05-11 05:09:01 51°14.479 2°55.08 321.3 11.3 318 9.7
2010-05-11 05:09:05 51°14.489 2°55.067 321.1 11.5 319 9.7
2010-05-11 05:09:10 51°14.501 2°55.05 320.8 11.7 318 9.7
2010-05-11 05:09:15 51°14.512 2°55.032 321.1 11.8 317 9.6
2010-05-11 05:09:21 51°14.526 2°55.008 320.9 12 312 10
2010-05-11 05:09:25 51°14.534 2°54.991 318.2 12.4 309 10.2
2010-05-11 05:09:31 51°14.547 2°54.964 315.8 12.6 308 9.8
2010-05-11 05:09:35 51°14.556 2°54.946 314.9 12.7 308 9.7
2010-05-11 05:09:41 51°14.569 2°54.92 314.7 12.9 309 9.9
2010-05-11 05:09:45 51°14.578 2°54.902 315.7 13 309 10
2010-05-11 05:09:50 51°14.59 2°54.88 316.5 13.1 310 10
2010-05-11 05:09:55 51°14.602 2°54.858 318 13.1 313 10
2010-05-11 05:10:01 51°14.617 2°54.833 319.4 13.1 314 9.8
2010-05-11 05:10:05 51°14.628 2°54.817 321.2 13.1 316 9.8
2010-05-11 05:10:11 51°14.644 2°54.794 323.3 13.1 318 10
2010-05-11 05:10:16 51°14.658 2°54.777 325.3 12.9 321 10.1
2010-05-11 05:10:21 51°14.672 2°54.759 328.3 12.9 323 9.4
2010-05-11 05:10:25 51°14.684 2°54.747 330.3 12.8 325 8.7
2010-05-11 05:10:30 51°14.698 2°54.732 333 12.8 327 8.6
2010-05-11 05:10:35 51°14.713 2°54.717 334.6 12.7 328 8.6
2010-05-11 05:10:41 51°14.732 2°54.7 336.2 12.6 330 8.5
2010-05-11 05:10:45 51°14.744 2°54.689 336.9 12.6 330 8.7
2010-05-11 05:10:51 51°14.763 2°54.674 338.1 12.7 332 8.5
2010-05-11 05:10:56 51°14.778 2°54.66 338.8 12.7 331 8.5
2010-05-11 05:11:01 51°14.794 2°54.648 339.6 12.7 333 8.3
2010-05-11 05:11:05 51°14.806 2°54.637 340.4 12.7 334 8.4
2010-05-11 05:11:10 51°14.822 2°54.625 340.7 12.8 333 8.6
2010-05-11 05:11:15 51°14.838 2°54.612 340.2 12.9 333 9.7
2010-05-11 05:11:21 51°14.857 2°54.596 340.2 13.1 333 10
2010-05-11 05:11:25 51°14.87 2°54.585 339.5 13.2 332 9.6
2010-05-11 05:11:31 51°14.89 2°54.568 338.7 13.2 332 9.7
2010-05-11 05:11:36 51°14.906 2°54.554 338.3 13.1 331 9.7
2010-05-11 05:11:40 51°14.918 2°54.543 337.7 13 331 8.8
2010-05-11 05:11:45 51°14.934 2°54.529 337.6 12.9 331 8.9
2010-05-11 05:11:50 51°14.949 2°54.516 337.5 12.7 332 8.6
2010-05-11 05:11:55 51°14.964 2°54.502 337.4 12.6 331 8.6
2010-05-11 05:12:01 51°14.983 2°54.486 337.5 12.6 331 8.5
2010-05-11 05:12:05 51°14.995 2°54.474 337.2 12.6 331 8.8
2010-05-11 05:12:11 51°15.013 2°54.457 337.1 12.7 330 8.9
2010-05-11 05:12:16 51°15.029 2°54.443 337.2 12.8 329 8.9
2010-05-11 05:12:21 51°15.043 2°54.427 335.2 12.8 327 8.6
2010-05-11 05:12:25 51°15.055 2°54.414 334.6 12.8 326 8.7
2010-05-11 05:12:31 51°15.072 2°54.394 333 12.9 324 8.7
2010-05-11 05:12:35 51°15.084 2°54.381 332.8 12.9 323 8.8
2010-05-11 05:12:41 51°15.101 2°54.361 332.2 12.9 325 8.9
2010-05-11 05:12:45 51°15.113 2°54.347 332.4 12.9 324 8.7
2010-05-11 05:12:50 51°15.128 2°54.331 332.1 12.9 324 9.2
2010-05-11 05:12:56 51°15.145 2°54.311 331.9 12.9 325 9.2
2010-05-11 05:13:01 51°15.16 2°54.295 332.2 13 326 9.1
2010-05-11 05:13:06 51°15.175 2°54.278 332.5 13 324 9.1
2010-05-11 05:13:10 51°15.186 2°54.264 332 13 324 9.1
2010-05-11 05:13:16 51°15.204 2°54.245 331.6 13 325 9.2
2010-05-11 05:13:21 51°15.219 2°54.228 332.1 12.9 325 8.9
2010-05-11 05:13:26 51°15.234 2°54.211 332.2 13 325 9.3
2010-05-11 05:13:30 51°15.245 2°54.198 331.8 13.1 325 9.2
2010-05-11 05:13:34 51°15.257 2°54.184 331 13.2 321 9
2010-05-11 05:13:40 51°15.274 2°54.162 329.6 13.2 321 9.4
2010-05-11 05:13:46 51°15.29 2°54.138 327.8 13.2 317 9.3
2010-05-11 05:13:50 51°15.301 2°54.123 327 13.2 319 9.3
2010-05-11 05:13:55 51°15.314 2°54.103 326.1 13.3 317 9
2010-05-11 05:14:00 51°15.328 2°54.083 325.8 13.2 319 9.6
2010-05-11 05:14:06 51°15.344 2°54.059 325.9 13.3 315 9.4
2010-05-11 05:14:10 51°15.354 2°54.042 324.5 13.4 316 9.5
2010-05-11 05:14:14 51°15.365 2°54.026 324.3 13.4 315 9.5
2010-05-11 05:14:20 51°15.381 2°54.001 323.8 13.3 316 9.4
2010-05-11 05:14:26 51°15.397 2°53.977 324.3 13.3 317 9.4
2010-05-11 05:14:30 51°15.408 2°53.961 325 13.2 318 9.6
2010-05-11 05:14:36 51°15.424 2°53.937 325.4 13.3 317 9.8
2010-05-11 05:14:41 51°15.437 2°53.917 325.4 13.3 318 9.5
2010-05-11 05:14:45 51°15.448 2°53.901 325.2 13.2 317 9.5
2010-05-11 05:14:50 51°15.462 2°53.881 325.1 13.3 318 9.8
2010-05-11 05:14:55 51°15.476 2°53.862 325.8 13.2 318 9.5
2010-05-11 05:15:01 51°15.492 2°53.838 325.3 13.3 318 9.8
2010-05-11 05:15:06 51°15.506 2°53.819 325.6 13.2 317 9.6
2010-05-11 05:15:10 51°15.516 2°53.802 324.9 13.3 316 9.8
2010-05-11 05:15:16 51°15.532 2°53.778 324.8 13.3 316 9.7
2010-05-11 05:15:21 51°15.546 2°53.758 324.5 13.3 318 10
2010-05-11 05:15:26 51°15.559 2°53.738 325.1 13.3 317 9.9
2010-05-11 05:15:30 51°15.57 2°53.722 325.2 13.3 318 9.8
2010-05-11 05:15:35 51°15.583 2°53.702 325.2 13.3 317 9.7
2010-05-11 05:15:41 51°15.6 2°53.679 325.2 13.2 319 9.7
2010-05-11 05:15:46 51°15.613 2°53.659 325.5 13.3 317 10
2010-05-11 05:15:50 51°15.624 2°53.643 324.9 13.3 317 9.9
2010-05-11 05:15:54 51°15.635 2°53.628 324.9 13.3 318 10.2
2010-05-11 05:16:01 51°15.654 2°53.6 325 13.3 317 10
2010-05-11 05:16:06 51°15.668 2°53.58 324.9 13.2 318 10
2010-05-11 05:16:10 51°15.678 2°53.564 324.8 13.3 316 10.2
2010-05-11 05:16:14 51°15.689 2°53.547 324.5 13.3 317 9.9
2010-05-11 05:16:20 51°15.705 2°53.523 324.7 13.3 317 10.1
2010-05-11 05:16:26 51°15.721 2°53.5 325 13.3 318 9.7
2010-05-11 05:16:30 51°15.732 2°53.485 325.4 13.1 320 10.1
2010-05-11 05:16:36 51°15.75 2°53.464 328.4 13.1 323 10.6
2010-05-11 05:16:41 51°15.765 2°53.447 329.8 13 324 10.6
2010-05-11 05:16:45 51°15.777 2°53.435 332.5 13 327 10.3
2010-05-11 05:16:50 51°15.792 2°53.419 334.1 13 328 10.1
2010-05-11 05:16:55 51°15.808 2°53.406 335.7 12.9 331 10.3
2010-05-11 05:17:01 51°15.827 2°53.39 337.6 12.8 332 10
2010-05-11 05:17:06 51°15.843 2°53.378 339 12.7 334 10.5
2010-05-11 05:17:10 51°15.855 2°53.369 341.2 12.7 336 10.2
2010-05-11 05:17:16 51°15.875 2°53.355 342.2 12.7 335 10.4
2010-05-11 05:17:21 51°15.891 2°53.343 343.2 12.7 336 10.5
2010-05-11 05:17:26 51°15.907 2°53.333 344.3 12.6 338 10
2010-05-11 05:17:30 51°15.92 2°53.325 345 12.5 338 10.2
2010-05-11 05:17:36 51°15.94 2°53.314 345.6 12.6 339 10.4
2010-05-11 05:17:41 51°15.957 2°53.304 346.4 12.6 340 10.5
2010-05-11 05:17:46 51°15.973 2°53.295 347 12.5 340 10.6
2010-05-11 05:17:50 51°15.986 2°53.288 347.6 12.5 341 10.4
2010-05-11 05:17:55 51°16.002 2°53.277 347.7 12.5 339 10.2
2010-05-11 05:18:01 51°16.021 2°53.266 347 12.5 339 10.6
2010-05-11 05:18:06 51°16.038 2°53.256 347.1 12.5 340 10.5
2010-05-11 05:18:10 51°16.05 2°53.248 347 12.5 339 10.5
2010-05-11 05:18:15 51°16.067 2°53.239 347 12.4 340 10.5
2010-05-11 05:18:21 51°16.087 2°53.227 347 12.5 339 10.8
2010-05-11 05:18:26 51°16.103 2°53.217 347 12.6 338 10.3
2010-05-11 05:18:30 51°16.116 2°53.208 346.4 12.5 338 10.7
2010-05-11 05:18:34 51°16.128 2°53.2 346.4 12.5 338 10.6
2010-05-11 05:18:40 51°16.148 2°53.188 346.4 12.6 338 10.4
2010-05-11 05:18:46 51°16.167 2°53.176 346.4 12.5 338 10.6
2010-05-11 05:18:50 51°16.18 2°53.167 346.3 12.5 337 10.8
2010-05-11 05:18:55 51°16.196 2°53.157 345.9 12.6 337 10.7
2010-05-11 05:19:00 51°16.212 2°53.146 345.7 12.6 337 11
2010-05-11 05:19:06 51°16.231 2°53.133 346.2 12.6 337 10.8
2010-05-11 05:19:10 51°16.244 2°53.124 346.1 12.5 337 10.5
2010-05-11 05:19:15 51°16.26 2°53.112 345.9 12.5 337 11
2010-05-11 05:19:21 51°16.279 2°53.1 346.2 12.6 337 11.1
2010-05-11 05:19:26 51°16.295 2°53.089 346.1 12.5 337 10.9
2010-05-11 05:19:30 51°16.308 2°53.081 346.5 12.4 339 11.1
2010-05-11 05:19:36 51°16.328 2°53.069 347.2 12.4 339 10.9
2010-05-11 05:19:41 51°16.344 2°53.06 347.1 12.5 340 11.2
2010-05-11 05:19:46 51°16.36 2°53.051 347.6 12.5 341 11
2010-05-11 05:19:50 51°16.373 2°53.042 347.5 12.6 339 10.8
2010-05-11 05:19:56 51°16.392 2°53.031 346.9 12.6 340 10.8
2010-05-11 05:20:01 51°16.409 2°53.021 346.3 12.6 340 10.8
2010-05-11 05:20:06 51°16.425 2°53.012 346.1 12.6 340 10.6
2010-05-11 05:20:10 51°16.439 2°53.004 345.8 12.7 339 10.8
2010-05-11 05:20:15 51°16.455 2°52.994 345.4 12.7 339 11
2010-05-11 05:20:21 51°16.475 2°52.982 345.3 12.6 339 10.4
2010-05-11 05:20:26 51°16.491 2°52.972 344.8 12.6 338 10.3
2010-05-11 05:20:30 51°16.504 2°52.964 344.8 12.7 339 10.7
2010-05-11 05:20:35 51°16.521 2°52.953 344.6 12.7 338 10.3
2010-05-11 05:20:40 51°16.537 2°52.943 344.7 12.6 339 10.4
2010-05-11 05:20:46 51°16.557 2°52.931 345.1 12.7 338 10.6
2010-05-11 05:20:50 51°16.57 2°52.923 344.8 12.7 339 10.5
2010-05-11 05:20:55 51°16.586 2°52.913 344.8 12.7 339 10.5
2010-05-11 05:21:00 51°16.602 2°52.903 345.1 12.7 339 10.5
2010-05-11 05:21:06 51°16.622 2°52.89 344.8 12.6 339 10.1
2010-05-11 05:21:10 51°16.635 2°52.882 344.8 12.6 338 10.3
2010-05-11 05:21:15 51°16.651 2°52.872 344.5 12.6 338 10.1
2010-05-11 05:21:20 51°16.667 2°52.862 344.2 12.6 338 9.9
2010-05-11 05:21:25 51°16.684 2°52.851 344.1 12.6 339 10.1
2010-05-11 05:21:30 51°16.7 2°52.841 344.6 12.6 338 9.8
2010-05-11 05:21:35 51°16.716 2°52.831 344.4 12.6 339 9.7
2010-05-11 05:21:40 51°16.732 2°52.821 344.6 12.5 339 9.6
2010-05-11 05:21:45 51°16.748 2°52.811 344.8 12.5 338 9.2
2010-05-11 05:21:50 51°16.764 2°52.8 344.6 12.4 337 9
2010-05-11 05:21:54 51°16.777 2°52.792 344.1 12.4 338 8.6
2010-05-11 05:22:00 51°16.796 2°52.78 344.1 12.2 338 8.3
2010-05-11 05:22:06 51°16.815 2°52.768 344.1 12.2 338 8.4
2010-05-11 05:22:10 51°16.827 2°52.759 344.1 12.2 339 8.5
2010-05-11 05:22:16 51°16.846 2°52.747 344.4 12.3 338 8.3
2010-05-11 05:22:20 51°16.859 2°52.739 344.2 12.3 339 8.4
2010-05-11 05:22:26 51°16.878 2°52.727 344.3 12.2 338 8.2
2010-05-11 05:22:30 51°16.89 2°52.719 344 12.2 338 8.2
2010-05-11 05:22:34 51°16.903 2°52.711 344 12.2 338 8.4
2010-05-11 05:22:40 51°16.922 2°52.698 343.9 12.3 338 8.5
2010-05-11 05:22:46 51°16.941 2°52.687 344.3 12.4 338 8.6
2010-05-11 05:22:50 51°16.954 2°52.678 344.4 12.2 338 8.3
2010-05-11 05:22:54 51°16.966 2°52.67 344.2 12.4 337 8.8
2010-05-11 05:23:00 51°16.985 2°52.657 343.7 12.5 337 8.9
2010-05-11 05:23:06 51°17.004 2°52.644 344.1 12.5 337 8.7
2010-05-11 05:23:10 51°17.017 2°52.636 343.9 12.4 338 9.2
2010-05-11 05:23:14 51°17.03 2°52.627 344.4 12.4 337 8.5
2010-05-11 05:23:20 51°17.049 2°52.615 344.2 12.5 338 8.6
2010-05-11 05:23:25 51°17.065 2°52.605 344.7 12.3 339 8.4
2010-05-11 05:23:30 51°17.081 2°52.595 345 12.3 339 8.7
2010-05-11 05:23:34 51°17.094 2°52.587 345.1 12.3 338 8.6
2010-05-11 05:23:40 51°17.113 2°52.575 344.8 12.4 338 8.5
2010-05-11 05:23:45 51°17.129 2°52.565 344.9 12.4 338 8.5
2010-05-11 05:23:50 51°17.145 2°52.555 344.8 12.4 338 8.4
2010-05-11 05:23:54 51°17.157 2°52.546 344.1 12.4 337 8.5
2010-05-11 05:24:00 51°17.176 2°52.533 344.1 12.4 337 8.6
2010-05-11 05:24:05 51°17.192 2°52.522 344 12.4 337 8.5
2010-05-11 05:24:10 51°17.208 2°52.512 343.9 12.5 337 8.7
2010-05-11 05:24:14 51°17.221 2°52.503 344.1 12.4 337 8.6
2010-05-11 05:24:20 51°17.24 2°52.491 344 12.4 339 9.1
2010-05-11 05:24:26 51°17.26 2°52.481 344.8 12.3 343 9
2010-05-11 05:24:30 51°17.273 2°52.477 348.9 12.3 346 8.8
2010-05-11 05:24:34 51°17.287 2°52.471 351.6 12.2 348 8.9
2010-05-11 05:24:40 51°17.307 2°52.466 354.2 12.3 350 9.4
2010-05-11 05:24:46 51°17.327 2°52.461 355.8 12.2 352 8.9
2010-05-11 05:24:50 51°17.34 2°52.459 357.7 12.2 354 8.8
2010-05-11 05:24:54 51°17.354 2°52.457 359.1 12.2 354 9
2010-05-11 05:25:00 51°17.374 2°52.454 0.1 12.1 355 9.4
2010-05-11 05:25:06 51°17.394 2°52.451 1.1 12.1 356 9.2
2010-05-11 05:25:10 51°17.407 2°52.451 1.7 12.1 357 9.3
2010-05-11 05:25:14 51°17.421 2°52.449 2.3 12.2 358 9.5
2010-05-11 05:25:20 51°17.441 2°52.449 3 12.1 359 9.2
2010-05-11 05:25:26 51°17.461 2°52.447 3.5 12.1 357 9.2
2010-05-11 05:25:30 51°17.474 2°52.446 3.5 12.1 358 9.3
2010-05-11 05:25:34 51°17.487 2°52.445 3.7 12.1 358 9.2
2010-05-11 05:25:40 51°17.508 2°52.444 3.5 12.1 358 9
2010-05-11 05:25:46 51°17.528 2°52.443 3.2 12.1 358 9.2
2010-05-11 05:25:50 51°17.541 2°52.442 3.2 12.1 357 9.4
2010-05-11 05:25:54 51°17.554 2°52.441 3 12.1 357 9.5
2010-05-11 05:26:00 51°17.574 2°52.439 2.7 12.1 358 9.3
2010-05-11 05:26:05 51°17.591 2°52.439 2.9 12 -999 9.4
2010-05-11 05:26:10 51°17.608 2°52.439 4.4 12.1 1 9.3
2010-05-11 05:26:14 51°17.621 2°52.44 6 12 4 9.4
2010-05-11 05:26:20 51°17.641 2°52.442 7.7 12.1 3 9.3
2010-05-11 05:26:26 51°17.661 2°52.446 8.7 12 6 9.4
2010-05-11 05:26:30 51°17.674 2°52.447 10 11.9 7 9.3
2010-05-11 05:26:34 51°17.687 2°52.451 12 11.9 10 9.3
2010-05-11 05:26:40 51°17.707 2°52.456 13.2 12 10 9.3
2010-05-11 05:26:46 51°17.726 2°52.463 14.6 11.9 12 8.9
2010-05-11 05:26:50 51°17.739 2°52.467 15.7 12 12 9.1
2010-05-11 05:26:54 51°17.752 2°52.472 16.2 12 13 9.1
2010-05-11 05:27:00 51°17.771 2°52.479 16.7 11.9 12 9.3
2010-05-11 05:27:06 51°17.79 2°52.487 17.3 11.9 15 9
2010-05-11 05:27:10 51°17.803 2°52.491 17.6 12 12 9.4
2010-05-11 05:27:14 51°17.816 2°52.496 17.3 11.9 14 9.3
2010-05-11 05:27:20 51°17.835 2°52.503 17.4 11.9 13 9.2
2010-05-11 05:27:26 51°17.855 2°52.511 17.6 11.9 13 9.3
2010-05-11 05:27:30 51°17.868 2°52.515 17.2 12 13 9.1
2010-05-11 05:27:34 51°17.881 2°52.52 17.1 11.9 13 8.9
2010-05-11 05:27:40 51°17.9 2°52.527 16.8 11.9 13 9.2
2010-05-11 05:27:45 51°17.916 2°52.535 17.9 11.8 16 9.3
2010-05-11 05:27:50 51°17.932 2°52.542 19.1 11.9 17 9.4
2010-05-11 05:27:54 51°17.945 2°52.548 20 12 17 9.5
2010-05-11 05:28:00 51°17.963 2°52.56 22.2 12 21 9.4
2010-05-11 05:28:05 51°17.978 2°52.569 23.3 11.9 21 9.4
2010-05-11 05:28:10 51°17.993 2°52.58 24.6 11.9 24 9.4
2010-05-11 05:28:14 51°18.005 2°52.588 26.7 11.8 25 9.8
2010-05-11 05:28:20 51°18.022 2°52.602 28.1 11.8 28 10
2010-05-11 05:28:25 51°18.037 2°52.615 29.4 11.8 29 9.3
2010-05-11 05:28:30 51°18.051 2°52.629 30.3 11.9 29 9.8
2010-05-11 05:28:34 51°18.062 2°52.64 32.4 11.9 35 9.6
2010-05-11 05:28:40 51°18.078 2°52.659 35.6 11.9 35 9.5
2010-05-11 05:28:46 51°18.093 2°52.679 37.5 11.9 40 9.8
2010-05-11 05:28:50 51°18.103 2°52.692 39 11.9 39 9.9
2010-05-11 05:28:54 51°18.113 2°52.706 40.5 11.8 42 9.8
2010-05-11 05:29:00 51°18.127 2°52.727 41.3 11.8 42 9.9
2010-05-11 05:29:06 51°18.142 2°52.748 42.9 11.9 42 9.9
2010-05-11 05:29:10 51°18.152 2°52.763 43 11.9 45 9.7
2010-05-11 05:29:14 51°18.161 2°52.778 44.9 11.8 45 9.5
2010-05-11 05:29:20 51°18.175 2°52.8 46 11.8 48 10
2010-05-11 05:29:26 51°18.188 2°52.824 47.3 11.8 47 9.9
2010-05-11 05:29:30 51°18.197 2°52.838 47.5 11.8 47 9.9
2010-05-11 05:29:34 51°18.206 2°52.854 47.9 11.9 50 9.8
2010-05-11 05:29:40 51°18.219 2°52.878 48.5 11.9 47 9.8
2010-05-11 05:29:46 51°18.232 2°52.902 48.3 11.8 50 9.6
2010-05-11 05:29:50 51°18.24 2°52.917 48.6 11.9 47 9.9
2010-05-11 05:29:54 51°18.249 2°52.933 48.4 11.8 50 9.8
2010-05-11 05:30:00 51°18.262 2°52.956 48.3 11.8 50 9.9
2010-05-11 05:30:06 51°18.275 2°52.981 50 11.9 51 9.8
2010-05-11 05:30:10 51°18.283 2°52.997 50.2 11.8 52 10.1
2010-05-11 05:30:14 51°18.291 2°53.014 51.6 11.8 52 10
2010-05-11 05:30:20 51°18.303 2°53.038 51.8 11.7 53 10
2010-05-11 05:30:25 51°18.312 2°53.059 52.8 11.8 52 10
2010-05-11 05:30:30 51°18.322 2°53.08 53.1 12 55 10.3
2010-05-11 05:30:34 51°18.33 2°53.097 53.3 12 54 9.9
2010-05-11 05:30:40 51°18.341 2°53.123 54.5 11.9 57 9.8
2010-05-11 05:30:45 51°18.35 2°53.145 55 11.8 57 9.7
2010-05-11 05:30:50 51°18.359 2°53.167 56 11.8 57 9.8
2010-05-11 05:30:54 51°18.366 2°53.184 56.4 11.9 59 10.4
2010-05-11 05:31:00 51°18.376 2°53.212 57.2 11.9 58 10.3
2010-05-11 05:31:06 51°18.387 2°53.238 57.1 11.9 58 10
2010-05-11 05:31:10 51°18.394 2°53.256 57.4 11.9 60 10
2010-05-11 05:31:14 51°18.401 2°53.274 57.9 11.9 57 9.9
2010-05-11 05:31:20 51°18.411 2°53.301 57.5 11.8 59 9.9
2010-05-11 05:31:26 51°18.421 2°53.328 57.4 11.8 59 10.1
2010-05-11 05:31:30 51°18.428 2°53.346 57.5 11.8 59 10.2
2010-05-11 05:31:34 51°18.434 2°53.364 57.6 11.8 58 9.8
2010-05-11 05:31:40 51°18.445 2°53.39 57.8 11.8 58 10.4
2010-05-11 05:31:46 51°18.455 2°53.417 57.4 11.9 59 10.3
2010-05-11 05:31:50 51°18.462 2°53.435 57.2 11.9 57 10.1
2010-05-11 05:31:54 51°18.47 2°53.453 57 11.9 58 9.6
2010-05-11 05:32:00 51°18.48 2°53.48 57 11.9 57 9.8
2010-05-11 05:32:06 51°18.491 2°53.506 56.5 11.8 58 10.2
2010-05-11 05:32:10 51°18.498 2°53.524 56.8 11.8 57 9.9
2010-05-11 05:32:14 51°18.505 2°53.541 56.3 12 58 10.2
2010-05-11 05:32:20 51°18.515 2°53.568 56.7 11.9 57 10
2010-05-11 05:32:25 51°18.524 2°53.59 56.7 11.9 58 10.2
2010-05-11 05:32:30 51°18.532 2°53.613 57 11.9 59 10.3
2010-05-11 05:32:34 51°18.54 2°53.631 56.7 11.8 58 10.2
2010-05-11 05:32:40 51°18.55 2°53.657 56.5 11.8 59 10.2
2010-05-11 05:32:45 51°18.559 2°53.679 56.8 11.9 56 10.5
2010-05-11 05:32:50 51°18.568 2°53.702 56.6 11.9 59 10.3
2010-05-11 05:32:54 51°18.575 2°53.719 56.8 12 55 10.2
2010-05-11 05:33:00 51°18.586 2°53.746 55.9 12 58 10.5
2010-05-11 05:33:06 51°18.597 2°53.772 55.8 11.9 57 10
2010-05-11 05:33:10 51°18.604 2°53.79 56.7 11.9 58 10.2
2010-05-11 05:33:14 51°18.611 2°53.808 56.2 11.9 57 10.3
2010-05-11 05:33:20 51°18.622 2°53.834 56.6 11.9 57 10.3
2010-05-11 05:33:26 51°18.633 2°53.861 56.4 12 56 10.2
2010-05-11 05:33:30 51°18.64 2°53.879 56.2 11.9 57 10.1
2010-05-11 05:33:34 51°18.648 2°53.896 55.9 11.9 56 9.7
2010-05-11 05:33:40 51°18.658 2°53.922 56.3 11.9 55 9.6
2010-05-11 05:33:46 51°18.669 2°53.949 55.9 11.9 58 10.2
2010-05-11 05:33:50 51°18.677 2°53.966 56.4 11.9 56 10.3
2010-05-11 05:33:54 51°18.684 2°53.983 55.9 11.9 56 10.2
2010-05-11 05:34:01 51°18.697 2°54.015 56 12 55 10.2
2010-05-11 05:34:06 51°18.706 2°54.037 55.4 12 57 10.2
2010-05-11 05:34:10 51°18.713 2°54.054 55.9 12 56 10.5
2010-05-11 05:34:14 51°18.721 2°54.072 55.9 11.9 57 10.2
2010-05-11 05:34:20 51°18.731 2°54.098 56 11.8 56 10.3
2010-05-11 05:34:26 51°18.743 2°54.124 55.8 11.9 56 10.4
2010-05-11 05:34:30 51°18.75 2°54.141 56.1 11.8 57 10.3
2010-05-11 05:34:34 51°18.757 2°54.159 56 11.9 55 10.4
2010-05-11 05:34:40 51°18.768 2°54.185 55.7 11.9 58 10.3
2010-05-11 05:34:46 51°18.779 2°54.211 56 11.9 54 9.9
2010-05-11 05:34:50 51°18.786 2°54.229 55.8 11.9 57 10.4
2010-05-11 05:34:54 51°18.794 2°54.247 55.7 11.9 56 10.5
2010-05-11 05:35:00 51°18.805 2°54.273 55.8 11.9 56 10.5
2010-05-11 05:35:05 51°18.814 2°54.295 55.9 11.9 56 10
2010-05-11 05:35:10 51°18.823 2°54.316 55.5 11.9 55 10.3
2010-05-11 05:35:14 51°18.831 2°54.334 55.5 11.9 56 10.3
2010-05-11 05:35:20 51°18.842 2°54.36 55.7 11.8 56 10.2
2010-05-11 05:35:26 51°18.853 2°54.386 55.9 11.9 56 10.2
2010-05-11 05:35:30 51°18.86 2°54.404 55.2 11.9 56 10.3
2010-05-11 05:35:34 51°18.867 2°54.422 55.7 11.9 57 10
2010-05-11 05:35:40 51°18.879 2°54.447 55.7 11.9 56 10.3
2010-05-11 05:35:46 51°18.89 2°54.474 55.4 11.9 56 10.2
2010-05-11 05:35:50 51°18.897 2°54.491 55.6 11.9 55 10.3
2010-05-11 05:35:54 51°18.905 2°54.509 55.5 12 57 10.5
2010-05-11 05:36:00 51°18.916 2°54.535 55.6 12 55 10.4
2010-05-11 05:36:06 51°18.926 2°54.562 55.8 12.1 59 11
2010-05-11 05:36:10 51°18.934 2°54.579 55.2 12.1 54 10.7
2010-05-11 05:36:14 51°18.942 2°54.597 55.5 12 58 10.6
2010-05-11 05:36:20 51°18.953 2°54.623 55.6 12.1 55 10.6
2010-05-11 05:36:26 51°18.964 2°54.65 55.6 12 56 10.5
2010-05-11 05:36:30 51°18.972 2°54.667 55.1 11.8 56 9.7
2010-05-11 05:36:34 51°18.978 2°54.685 56 11.8 55 10.2
2010-05-11 05:36:40 51°18.99 2°54.711 55.3 12 57 10.6
2010-05-11 05:36:45 51°18.999 2°54.733 55.6 12 54 10.6
2010-05-11 05:36:50 51°19.008 2°54.755 55.2 12 57 10.6
2010-05-11 05:36:54 51°19.016 2°54.772 55.3 11.9 55 10.4
2010-05-11 05:37:00 51°19.027 2°54.798 55.4 12 57 10.6
2010-05-11 05:37:05 51°19.036 2°54.82 55.5 11.9 55 10.5
2010-05-11 05:37:10 51°19.045 2°54.842 55.2 11.9 56 10.3
2010-05-11 05:37:14 51°19.053 2°54.859 55.3 11.9 56 10.7
2010-05-11 05:37:20 51°19.064 2°54.885 55 11.9 55 10.5
2010-05-11 05:37:25 51°19.073 2°54.907 54.9 11.9 57 10
2010-05-11 05:37:30 51°19.082 2°54.929 55.2 12 59 10.9
2010-05-11 05:37:34 51°19.089 2°54.947 57.1 11.9 58 10.8
2010-05-11 05:37:40 51°19.099 2°54.975 57.5 11.9 60 10.3
2010-05-11 05:37:46 51°19.109 2°55.002 58.7 11.9 60 10.4
2010-05-11 05:37:50 51°19.116 2°55.02 59.3 11.9 60 10.4
2010-05-11 05:37:56 51°19.125 2°55.048 60.2 12 63 10.6
2010-05-11 05:38:00 51°19.132 2°55.066 60.2 11.9 60 10.5
2010-05-11 05:38:06 51°19.141 2°55.095 60.8 12 63 10.7
2010-05-11 05:38:10 51°19.147 2°55.113 60.3 12 62 10.7
2010-05-11 05:38:15 51°19.155 2°55.136 60.6 11.9 62 10.4
2010-05-11 05:38:21 51°19.164 2°55.164 61.1 11.9 61 10.1
2010-05-11 05:38:26 51°19.172 2°55.188 60.8 12 63 10.5
2010-05-11 05:38:30 51°19.179 2°55.206 61.1 12 61 10
2010-05-11 05:38:35 51°19.186 2°55.23 60.6 11.9 61 10.1
2010-05-11 05:38:41 51°19.196 2°55.258 61.1 12 62 10.4
2010-05-11 05:38:46 51°19.204 2°55.281 60.6 12 62 10.2
2010-05-11 05:38:50 51°19.209 2°55.301 61.3 12 64 10.6
2010-05-11 05:38:55 51°19.218 2°55.324 61.1 12 64 10.9
2010-05-11 05:39:00 51°19.224 2°55.348 62.7 12 65 10.5
2010-05-11 05:39:05 51°19.231 2°55.372 63.2 11.9 66 10.3
2010-05-11 05:39:10 51°19.238 2°55.396 64.5 11.9 64 10.4
2010-05-11 05:39:14 51°19.244 2°55.415 64 12 67 10.6
2010-05-11 05:39:20 51°19.251 2°55.445 65.1 12 67 10.6
2010-05-11 05:39:25 51°19.258 2°55.469 65.1 12 67 10.5
2010-05-11 05:39:30 51°19.264 2°55.494 65.7 11.8 67 10.3
2010-05-11 05:39:34 51°19.269 2°55.513 66 11.9 68 10.2
2010-05-11 05:39:40 51°19.277 2°55.543 66 12 66 10.4
2010-05-11 05:39:45 51°19.283 2°55.567 65.6 12 69 10.7
2010-05-11 05:39:50 51°19.289 2°55.592 66.3 12 67 10.4
2010-05-11 05:39:54 51°19.294 2°55.612 66.3 12 68 10.2
2010-05-11 05:40:00 51°19.302 2°55.642 66.3 12.1 67 10.3
2010-05-11 05:40:06 51°19.309 2°55.672 66 12.1 69 10.8
2010-05-11 05:40:10 51°19.315 2°55.691 65.8 12 66 10.1
2010-05-11 05:40:14 51°19.32 2°55.711 66.2 12.1 69 10.1
2010-05-11 05:40:20 51°19.328 2°55.74 66.2 12 67 10.5
2010-05-11 05:40:26 51°19.335 2°55.769 66.1 11.9 68 10.1
2010-05-11 05:40:30 51°19.34 2°55.789 66.2 12 68 10.2
2010-05-11 05:40:34 51°19.346 2°55.809 66.4 12.2 67 10.3
2010-05-11 05:40:40 51°19.353 2°55.839 66 12.1 67 10.1
2010-05-11 05:40:46 51°19.361 2°55.868 65.6 12 67 10.3
2010-05-11 05:40:50 51°19.367 2°55.887 65.9 12 67 10.2
2010-05-11 05:40:54 51°19.372 2°55.907 66 12.1 66 10.4
2010-05-11 05:41:00 51°19.38 2°55.936 65.4 12 67 10.4
2010-05-11 05:41:06 51°19.387 2°55.966 66 12 67 10.1
2010-05-11 05:41:10 51°19.393 2°55.985 65.6 12 66 10.3
2010-05-11 05:41:14 51°19.398 2°56.005 65.6 12.1 69 10.5
2010-05-11 05:41:20 51°19.406 2°56.034 66.1 12.1 64 10.2
2010-05-11 05:41:25 51°19.412 2°56.059 65.8 12 68 10.3
2010-05-11 05:41:30 51°19.419 2°56.084 66.1 12.1 68 10.4
2010-05-11 05:41:34 51°19.424 2°56.104 66.2 12.1 66 10.2
2010-05-11 05:41:40 51°19.432 2°56.133 65.1 12 68 10.3
2010-05-11 05:41:45 51°19.439 2°56.157 65.8 12 67 10.3
2010-05-11 05:41:50 51°19.445 2°56.181 66 11.9 66 10.4
2010-05-11 05:41:54 51°19.45 2°56.201 65.6 12 67 10.3
2010-05-11 05:42:00 51°19.458 2°56.23 65.6 11.9 65 10
2010-05-11 05:42:05 51°19.465 2°56.254 65.3 11.9 67 10.2
2010-05-11 05:42:10 51°19.472 2°56.279 65.3 12 65 9.9
2010-05-11 05:42:14 51°19.477 2°56.299 65.6 12.2 67 10.2
2010-05-11 05:42:20 51°19.486 2°56.328 65.2 12.1 66 10.5
2010-05-11 05:42:26 51°19.494 2°56.357 65 12 66 10
2010-05-11 05:42:30 51°19.499 2°56.376 65.5 12.2 67 10.2
2010-05-11 05:42:34 51°19.504 2°56.396 65.1 12 65 10.4
2010-05-11 05:42:40 51°19.512 2°56.426 65.5 12 68 9.9
2010-05-11 05:42:46 51°19.52 2°56.454 65.8 11.9 66 10.2
2010-05-11 05:42:50 51°19.525 2°56.474 65 12 68 10.2
2010-05-11 05:42:54 51°19.53 2°56.493 65.7 12 65 9.8
2010-05-11 05:43:00 51°19.538 2°56.523 65.6 12 66 10.1
2010-05-11 05:43:06 51°19.546 2°56.552 65.1 12 68 10.4
2010-05-11 05:43:10 51°19.552 2°56.571 66.1 12 66 10.5
2010-05-11 05:43:14 51°19.557 2°56.59 65.2 11.9 67 10.1
2010-05-11 05:43:20 51°19.565 2°56.62 65.9 12 66 10.5
2010-05-11 05:43:26 51°19.573 2°56.649 65.4 12 67 10.2
2010-05-11 05:43:30 51°19.578 2°56.669 66.2 11.9 65 9.7
2010-05-11 05:43:34 51°19.584 2°56.688 65.4 11.9 67 10.1
2010-05-11 05:43:40 51°19.591 2°56.717 65.4 12 66 10
2010-05-11 05:43:45 51°19.599 2°56.742 65.1 12.1 66 10.2
2010-05-11 05:43:50 51°19.605 2°56.766 65 12.1 66 10.3
2010-05-11 05:43:54 51°19.611 2°56.785 64.8 12 65 10.1
2010-05-11 05:44:00 51°19.619 2°56.814 64.8 12 67 10.1
2010-05-11 05:44:05 51°19.626 2°56.838 65.6 12 65 10
2010-05-11 05:44:10 51°19.632 2°56.863 65.2 12 67 10.2
2010-05-11 05:44:14 51°19.638 2°56.883 65.1 12.1 65 10.1
2010-05-11 05:44:20 51°19.646 2°56.912 65.2 11.9 66 10.3
2010-05-11 05:44:26 51°19.654 2°56.94 65.4 11.9 67 10.2
2010-05-11 05:44:30 51°19.66 2°56.96 65.4 12.1 66 10.1
2010-05-11 05:44:34 51°19.665 2°56.979 65.4 12.1 65 10.2
2010-05-11 05:44:40 51°19.673 2°57.008 64.7 11.9 66 9.9
2010-05-11 05:44:46 51°19.681 2°57.037 65.4 12 66 10.2
2010-05-11 05:44:50 51°19.687 2°57.057 64.8 12 66 10
2010-05-11 05:44:54 51°19.691 2°57.077 65.9 11.9 65 9.9
2010-05-11 05:45:00 51°19.7 2°57.105 64.9 11.9 65 10
2010-05-11 05:45:06 51°19.707 2°57.134 65.8 11.9 67 10
2010-05-11 05:45:10 51°19.713 2°57.153 65.1 11.9 66 10.3
2010-05-11 05:45:14 51°19.718 2°57.173 65.4 11.9 67 9.9
2010-05-11 05:45:20 51°19.727 2°57.201 65.4 11.8 65 9.7
2010-05-11 05:45:26 51°19.734 2°57.231 65.7 11.9 67 9.9
2010-05-11 05:45:30 51°19.74 2°57.25 65.9 11.8 67 9.7
2010-05-11 05:45:34 51°19.744 2°57.27 65.5 11.9 66 9.8
2010-05-11 05:45:40 51°19.753 2°57.298 65.1 11.9 66 10
2010-05-11 05:45:46 51°19.761 2°57.327 65.9 11.8 65 10.2
2010-05-11 05:45:50 51°19.766 2°57.346 65 11.9 66 9.9
2010-05-11 05:45:54 51°19.771 2°57.365 65 11.8 65 10.1
2010-05-11 05:46:00 51°19.78 2°57.393 64.7 11.8 66 9.8
2010-05-11 05:46:05 51°19.786 2°57.417 65.3 11.9 65 9.9
2010-05-11 05:46:10 51°19.793 2°57.441 65.1 11.8 66 9.7
2010-05-11 05:46:14 51°19.799 2°57.46 64.9 11.8 65 9.9
2010-05-11 05:46:20 51°19.807 2°57.489 65.5 11.8 67 10
2010-05-11 05:46:25 51°19.814 2°57.513 65.2 11.9 66 9.9
2010-05-11 05:46:30 51°19.82 2°57.537 65.1 11.8 66 9.9
2010-05-11 05:46:34 51°19.825 2°57.557 65.4 11.9 68 9.5
2010-05-11 05:46:40 51°19.833 2°57.585 65.6 11.9 64 9.8
2010-05-11 05:46:46 51°19.841 2°57.615 65.7 11.9 68 10
2010-05-11 05:46:50 51°19.847 2°57.634 65.5 11.9 65 9.8
2010-05-11 05:46:56 51°19.854 2°57.663 65.5 12.1 68 10.4
2010-05-11 05:47:00 51°19.861 2°57.682 65.1 11.9 64 10
2010-05-11 05:47:06 51°19.868 2°57.711 65.4 11.9 67 9.8
2010-05-11 05:47:10 51°19.874 2°57.73 64.8 11.9 65 9.9
2010-05-11 05:47:14 51°19.879 2°57.75 65.4 11.9 66 9.6
2010-05-11 05:47:20 51°19.887 2°57.779 65.5 12 67 9.9
2010-05-11 05:47:26 51°19.896 2°57.808 65.3 12 65 9.9
2010-05-11 05:47:30 51°19.901 2°57.827 64.7 11.8 66 9.6
2010-05-11 05:47:34 51°19.906 2°57.846 65.3 12 66 9.7
2010-05-11 05:47:40 51°19.915 2°57.875 65.1 12 65 9.9
2010-05-11 05:47:46 51°19.923 2°57.905 64.9 11.9 66 9.9
2010-05-11 05:47:50 51°19.928 2°57.924 65.5 11.9 65 9.7
2010-05-11 05:47:54 51°19.934 2°57.943 65.2 12 66 9.8
2010-05-11 05:48:00 51°19.942 2°57.972 65.4 11.9 65 9.9
2010-05-11 05:48:05 51°19.949 2°57.996 65.1 11.9 65 9.6
2010-05-11 05:48:10 51°19.956 2°58.02 64.9 12 65 10.3
2010-05-11 05:48:14 51°19.962 2°58.039 64.8 12.1 65 10.1
2010-05-11 05:48:20 51°19.97 2°58.068 64.9 11.9 66 9.9
2010-05-11 05:48:25 51°19.977 2°58.092 65.6 11.9 64 9.5
2010-05-11 05:48:30 51°19.984 2°58.116 65.3 12 68 10.2
2010-05-11 05:48:34 51°19.989 2°58.135 65.3 11.8 65 9.8
2010-05-11 05:48:40 51°19.996 2°58.164 66 11.8 68 10
2010-05-11 05:48:45 51°20.004 2°58.188 65.6 11.8 64 9.8
2010-05-11 05:48:50 51°20.01 2°58.212 65.4 11.8 66 10
2010-05-11 05:48:54 51°20.015 2°58.231 65.4 11.8 67 10.2
2010-05-11 05:49:00 51°20.023 2°58.26 65.2 11.8 65 10
2010-05-11 05:49:06 51°20.03 2°58.289 65.4 11.8 69 9.9
2010-05-11 05:49:10 51°20.036 2°58.308 65.4 11.8 64 9.9
2010-05-11 05:49:16 51°20.043 2°58.337 65.4 11.8 68 9.8
2010-05-11 05:49:20 51°20.049 2°58.356 65.4 11.8 65 9.8
2010-05-11 05:49:26 51°20.057 2°58.385 65.7 11.8 67 10.1
2010-05-11 05:49:30 51°20.063 2°58.404 65.4 11.8 65 9.9
2010-05-11 05:49:34 51°20.068 2°58.423 65.1 11.9 67 10.1
2010-05-11 05:49:40 51°20.077 2°58.451 65.1 11.8 64 9.6
2010-05-11 05:49:46 51°20.084 2°58.481 65.4 12 67 9.9
2010-05-11 05:49:50 51°20.09 2°58.499 65.2 11.9 64 9.9
2010-05-11 05:49:54 51°20.095 2°58.519 65.1 11.8 67 9.7
2010-05-11 05:50:00 51°20.103 2°58.548 65.7 11.8 65 9.8
2010-05-11 05:50:06 51°20.111 2°58.576 65.2 11.8 66 9.7
2010-05-11 05:50:10 51°20.116 2°58.595 65.3 11.8 66 9.7
2010-05-11 05:50:14 51°20.122 2°58.614 65.4 11.8 65 9.8
2010-05-11 05:50:20 51°20.13 2°58.643 64.9 11.8 65 9.6
2010-05-11 05:50:25 51°20.137 2°58.667 65 11.9 66 9.6
2010-05-11 05:50:30 51°20.144 2°58.69 64.7 11.9 66 9.7
2010-05-11 05:50:34 51°20.149 2°58.709 65.5 11.9 64 9.9
2010-05-11 05:50:40 51°20.158 2°58.738 64.7 11.8 66 9.7
2010-05-11 05:50:45 51°20.164 2°58.762 65.4 11.7 66 9.7
2010-05-11 05:50:50 51°20.171 2°58.785 65.5 11.8 66 9.6
2010-05-11 05:50:54 51°20.176 2°58.805 65.7 11.8 67 9.8
2010-05-11 05:51:00 51°20.184 2°58.833 65.8 11.7 64 9.3
2010-05-11 05:51:06 51°20.192 2°58.862 65.6 11.7 67 9.6
2010-05-11 05:51:10 51°20.197 2°58.881 66 11.8 65 9.5
2010-05-11 05:51:14 51°20.202 2°58.9 65.3 11.8 65 9.5
2010-05-11 05:51:20 51°20.21 2°58.929 65.4 11.8 66 9.9
2010-05-11 05:51:26 51°20.218 2°58.958 65.5 11.9 66 9.9
2010-05-11 05:51:30 51°20.224 2°58.976 65 11.9 65 10
2010-05-11 05:51:34 51°20.229 2°58.996 65.1 11.8 67 9.6
2010-05-11 05:51:40 51°20.237 2°59.025 65.6 11.9 66 9.6
2010-05-11 05:51:46 51°20.246 2°59.053 65.5 11.9 65 9.5
2010-05-11 05:51:50 51°20.251 2°59.073 65.5 12 67 9.4
2010-05-11 05:51:54 51°20.256 2°59.092 65.4 12 65 9.6
2010-05-11 05:52:00 51°20.265 2°59.12 64.9 11.9 66 9.9
2010-05-11 05:52:06 51°20.273 2°59.148 65.1 11.8 65 9.7
2010-05-11 05:52:10 51°20.278 2°59.168 65.4 11.9 66 9.6
2010-05-11 05:52:14 51°20.284 2°59.187 65.3 11.9 65 9.6
2010-05-11 05:52:20 51°20.292 2°59.216 65.1 11.9 66 9.5
2010-05-11 05:52:26 51°20.301 2°59.244 65.4 11.9 65 9.6
2010-05-11 05:52:30 51°20.306 2°59.264 65.3 11.9 67 9.6
2010-05-11 05:52:34 51°20.311 2°59.283 65.2 11.8 64 9.8
2010-05-11 05:52:40 51°20.319 2°59.312 65.4 12 68 9.6
2010-05-11 05:52:45 51°20.327 2°59.336 65.4 12 63 9.6
2010-05-11 05:52:50 51°20.333 2°59.36 64.5 11.8 66 9.6
2010-05-11 05:52:54 51°20.338 2°59.379 65.6 11.8 66 9.7
2010-05-11 05:53:00 51°20.346 2°59.408 65 11.9 67 9.7
2010-05-11 05:53:05 51°20.352 2°59.433 66.2 11.9 66 9.8
2010-05-11 05:53:10 51°20.36 2°59.456 65.3 11.8 64 9.3
2010-05-11 05:53:14 51°20.364 2°59.475 65.5 11.8 67 9.7
2010-05-11 05:53:20 51°20.373 2°59.504 65.4 11.9 65 9.9
2010-05-11 05:53:26 51°20.381 2°59.533 65.1 11.9 66 9.6
2010-05-11 05:53:30 51°20.387 2°59.552 64.8 11.8 64 9.3
2010-05-11 05:53:36 51°20.395 2°59.58 65.1 11.8 66 9.4
2010-05-11 05:53:40 51°20.4 2°59.599 65.4 11.8 65 9.6
2010-05-11 05:53:46 51°20.408 2°59.628 65.3 11.9 66 9.8
2010-05-11 05:53:50 51°20.414 2°59.647 65 11.8 65 9.7
2010-05-11 05:53:54 51°20.419 2°59.666 65.4 11.8 67 9.8
2010-05-11 05:54:00 51°20.428 2°59.694 65.7 11.9 64 9.7
2010-05-11 05:54:06 51°20.436 2°59.723 65.3 11.9 66 9.6
2010-05-11 05:54:10 51°20.442 2°59.741 65.3 11.9 63 9.5
2010-05-11 05:54:14 51°20.447 2°59.76 65.4 11.9 67 9.4
2010-05-11 05:54:21 51°20.457 2°59.793 65.6 11.8 63 9.4
2010-05-11 05:54:26 51°20.464 2°59.817 65.1 11.8 66 9.5
2010-05-11 05:54:30 51°20.469 2°59.837 65.7 11.8 66 9.3
2010-05-11 05:54:34 51°20.474 2°59.856 65.5 11.9 64 9.6
2010-05-11 05:54:40 51°20.482 2°59.884 65.2 11.8 67 9.9
2010-05-11 05:54:45 51°20.489 2°59.908 65.4 11.8 65 9.6
2010-05-11 05:54:50 51°20.495 2°59.933 65.5 11.9 67 9.7
2010-05-11 05:54:54 51°20.5 2°59.952 65.5 11.9 65 9.3
2010-05-11 05:55:00 51°20.508 2°59.98 65.2 11.8 65 9.4
2010-05-11 05:55:05 51°20.515 3°0.004 65.4 11.8 67 9.3
2010-05-11 05:55:10 51°20.522 3°0.028 65.2 11.8 64 9.6
2010-05-11 05:55:14 51°20.528 3°0.047 65.2 11.7 67 9.2
2010-05-11 05:55:20 51°20.536 3°0.075 65.2 11.7 63 9.3
2010-05-11 05:55:25 51°20.542 3°0.099 65.4 11.8 65 9.6
2010-05-11 05:55:30 51°20.549 3°0.123 64.7 11.7 65 9.4
2010-05-11 05:55:34 51°20.555 3°0.142 65.1 11.8 65 9.3
2010-05-11 05:55:40 51°20.563 3°0.17 64.8 11.7 65 9.2
2010-05-11 05:55:46 51°20.571 3°0.198 64.9 11.7 66 9.4
2010-05-11 05:55:50 51°20.577 3°0.217 65.3 11.8 65 9.5
2010-05-11 05:55:56 51°20.585 3°0.246 65.4 11.8 66 9.6
2010-05-11 05:56:00 51°20.591 3°0.265 65.4 11.8 65 9.4
2010-05-11 05:56:06 51°20.599 3°0.293 65.5 11.8 65 9.3
2010-05-11 05:56:10 51°20.604 3°0.312 65.3 11.7 65 9.5
2010-05-11 05:56:14 51°20.609 3°0.331 65.7 11.9 65 9.3
2010-05-11 05:56:20 51°20.618 3°0.36 65.9 11.8 65 9.2
2010-05-11 05:56:26 51°20.626 3°0.388 65.2 11.7 64 9.2
2010-05-11 05:56:30 51°20.631 3°0.407 65.4 11.8 66 9.5
2010-05-11 05:56:34 51°20.637 3°0.426 65.7 11.9 65 9.4
2010-05-11 05:56:40 51°20.645 3°0.455 65.1 11.8 65 9.4
2010-05-11 05:56:46 51°20.654 3°0.483 65.4 11.8 65 9.5
2010-05-11 05:56:50 51°20.659 3°0.502 65.4 11.8 65 9.3
2010-05-11 05:56:54 51°20.664 3°0.521 64.9 11.9 64 9.7
2010-05-11 05:57:00 51°20.673 3°0.549 64.3 11.8 66 9.1
2010-05-11 05:57:06 51°20.681 3°0.578 65.2 11.8 64 9
2010-05-11 05:57:10 51°20.687 3°0.597 64.9 11.8 65 9.5
2010-05-11 05:57:14 51°20.692 3°0.616 65.3 11.8 66 9.3
2010-05-11 05:57:20 51°20.701 3°0.645 65.4 11.8 64 9
2010-05-11 05:57:25 51°20.707 3°0.669 65.4 11.9 67 9.3
2010-05-11 05:57:30 51°20.715 3°0.692 65.5 11.8 64 9.4
2010-05-11 05:57:34 51°20.719 3°0.711 65.9 11.8 67 9.4
2010-05-11 05:57:40 51°20.727 3°0.739 65.5 11.8 65 9.4
2010-05-11 05:57:46 51°20.735 3°0.769 65.5 11.9 66 9.5
2010-05-11 05:57:50 51°20.741 3°0.787 65.3 11.8 65 9.6
2010-05-11 05:57:54 51°20.747 3°0.806 65 11.9 66 9.5
2010-05-11 05:58:00 51°20.755 3°0.835 65.5 11.9 63 9.3
2010-05-11 05:58:06 51°20.764 3°0.863 65.1 11.9 65 9.1
2010-05-11 05:58:10 51°20.769 3°0.882 65.3 11.9 64 9.4
2010-05-11 05:58:14 51°20.775 3°0.901 65 11.9 65 9.3
2010-05-11 05:58:20 51°20.784 3°0.929 65.1 11.9 64 9.2
2010-05-11 05:58:26 51°20.793 3°0.957 65.1 11.9 65 9.6
2010-05-11 05:58:30 51°20.799 3°0.976 65 11.9 66 9.8
2010-05-11 05:58:34 51°20.804 3°0.995 65.5 11.9 66 9.6
2010-05-11 05:58:41 51°20.814 3°1.029 65.4 11.8 64 9.4
2010-05-11 05:58:46 51°20.821 3°1.053 65.2 11.8 66 8.9
2010-05-11 05:58:50 51°20.826 3°1.072 66 11.9 65 9.9
2010-05-11 05:58:54 51°20.832 3°1.091 65.1 11.9 68 9.5
2010-05-11 05:59:00 51°20.84 3°1.12 66.2 11.9 62 9.5
2010-05-11 05:59:06 51°20.848 3°1.149 65.1 12.1 68 9.5
2010-05-11 05:59:10 51°20.854 3°1.169 65.5 12 63 9.6
2010-05-11 05:59:14 51°20.86 3°1.187 64.6 11.9 66 9.4
2010-05-11 05:59:20 51°20.868 3°1.216 65.6 11.7 65 9.1
2010-05-11 05:59:25 51°20.875 3°1.24 65.2 12 66 9.3
2010-05-11 05:59:30 51°20.882 3°1.264 65.1 12 63 9.5
2010-05-11 05:59:34 51°20.888 3°1.283 64.7 11.9 65 9.3
2010-05-11 05:59:40 51°20.896 3°1.312 65.2 11.8 64 9.2
2010-05-11 05:59:45 51°20.903 3°1.335 65.6 12 67 9.6
2010-05-11 05:59:50 51°20.911 3°1.359 65.7 12 63 9.3
2010-05-11 05:59:54 51°20.916 3°1.378 65.3 11.9 67 9.2
2010-05-11 06:00:00 51°20.925 3°1.407 66.1 12 64 9.6
2010-05-11 06:00:06 51°20.933 3°1.436 65.5 12 66 9.2
2010-05-11 06:00:10 51°20.939 3°1.455 65.8 12 63 9.4
2010-05-11 06:00:15 51°20.946 3°1.479 65.4 12 67 9.8
2010-05-11 06:00:21 51°20.954 3°1.508 65.7 12.1 64 9.8
2010-05-11 06:00:26 51°20.961 3°1.533 65.4 12.1 66 9.8
2010-05-11 06:00:30 51°20.967 3°1.552 65.1 12 64 9.8
2010-05-11 06:00:34 51°20.973 3°1.571 65 12.2 65 9.7
2010-05-11 06:00:40 51°20.982 3°1.6 65.1 12.1 64 9.6
2010-05-11 06:00:46 51°20.99 3°1.629 65.1 12 64 9.4
2010-05-11 06:00:50 51°20.996 3°1.648 65.2 12 64 9.6
2010-05-11 06:00:54 51°21.001 3°1.667 65.4 12 64 9.7
2010-05-11 06:01:00 51°21.01 3°1.696 65 12 66 9.4
2010-05-11 06:01:06 51°21.019 3°1.725 65.6 12.1 63 9.6
2010-05-11 06:01:10 51°21.025 3°1.744 65.1 12.2 66 9.8
2010-05-11 06:01:14 51°21.03 3°1.764 65.2 12 64 9.4
2010-05-11 06:01:20 51°21.039 3°1.792 65.6 12 63 9.2
2010-05-11 06:01:25 51°21.046 3°1.816 65.1 12.1 64 9.5
2010-05-11 06:01:30 51°21.053 3°1.841 65.4 12.2 65 9.7
2010-05-11 06:01:34 51°21.06 3°1.86 64.9 12 64 9.9
2010-05-11 06:01:40 51°21.067 3°1.89 65.4 12.1 66 10
2010-05-11 06:01:45 51°21.075 3°1.913 64.9 12.1 64 10.3
2010-05-11 06:01:50 51°21.082 3°1.938 65.5 12.1 67 9.9
2010-05-11 06:01:54 51°21.088 3°1.957 66.2 12.1 63 9.5
2010-05-11 06:02:00 51°21.096 3°1.986 65.6 12.1 66 9.9
2010-05-11 06:02:05 51°21.104 3°2.01 65.5 12 63 9.8
2010-05-11 06:02:10 51°21.111 3°2.035 65.4 12.2 65 10.1
2010-05-11 06:02:14 51°21.117 3°2.053 64.7 12.1 64 9.8
2010-05-11 06:02:20 51°21.126 3°2.083 64.7 12.1 64 9.7
2010-05-11 06:02:26 51°21.135 3°2.112 65 12.1 64 9.8
2010-05-11 06:02:30 51°21.14 3°2.131 65.4 12.1 64 9.8
2010-05-11 06:02:34 51°21.146 3°2.151 65.6 12.1 65 9.8
2010-05-11 06:02:40 51°21.155 3°2.18 65.5 12.1 63 9.7
2010-05-11 06:02:46 51°21.164 3°2.209 65.3 12.1 64 9.4
2010-05-11 06:02:50 51°21.169 3°2.229 66.1 12.1 65 10.1
2010-05-11 06:02:54 51°21.175 3°2.247 65 12.2 65 10.1
2010-05-11 06:03:00 51°21.184 3°2.277 65.6 12.2 63 10.3
2010-05-11 06:03:06 51°21.192 3°2.307 65.2 12.2 66 10.3
2010-05-11 06:03:10 51°21.198 3°2.326 65.3 12.2 64 10
2010-05-11 06:03:14 51°21.205 3°2.345 65.2 12.2 65 10.1
2010-05-11 06:03:20 51°21.213 3°2.375 65.4 12.2 65 10.2
2010-05-11 06:03:26 51°21.222 3°2.404 65.1 12.2 64 10.3
2010-05-11 06:03:30 51°21.228 3°2.424 65.7 12.2 65 10.1
2010-05-11 06:03:34 51°21.234 3°2.442 65.1 12.1 64 10
2010-05-11 06:03:40 51°21.242 3°2.472 65.9 12 65 10.2
2010-05-11 06:03:45 51°21.25 3°2.496 65.5 12.1 65 10.4
2010-05-11 06:03:50 51°21.257 3°2.52 65.8 12.1 66 10.2
2010-05-11 06:03:54 51°21.262 3°2.54 66 12.2 63 10.1
2010-05-11 06:04:00 51°21.271 3°2.569 65.2 12.2 65 9.8
2010-05-11 06:04:00 51°21.271 3°2.569 65.2 12.2 65 9.8
2010-05-11 06:04:10 51°21.286 3°2.617 64.8 12.2 65 9.8
2010-05-11 06:04:14 51°21.291 3°2.637 65.4 12.1 62 10
2010-05-11 06:04:16 51°21.295 3°2.646 65.4 12.1 62 10
2010-05-11 06:04:33 51°21.319 3°2.728 65 12.1 67 9.8
2010-05-11 06:04:38 51°21.327 3°2.752 65.5 12.2 62 10
2010-05-11 06:04:43 51°21.334 3°2.777 65.6 12.1 65 10.2
2010-05-11 06:04:49 51°21.343 3°2.805 65 12 63 9.7
2010-05-11 06:04:54 51°21.351 3°2.829 65.1 12 63 10.3
2010-05-11 06:04:58 51°21.357 3°2.848 65 12.1 64 10.3
2010-05-11 06:05:03 51°21.364 3°2.872 64.9 12.2 63 10
2010-05-11 06:05:09 51°21.373 3°2.901 64.7 12.1 65 9.9
2010-05-11 06:05:14 51°21.38 3°2.925 65 12.1 63 9.9
2010-05-11 06:05:18 51°21.386 3°2.944 65.2 12.1 62 9.8
2010-05-11 06:05:23 51°21.393 3°2.969 64.8 12.1 64 10.3
2010-05-11 06:05:29 51°21.402 3°2.997 64.7 12 66 10.6
2010-05-11 06:05:34 51°21.41 3°3.021 65.9 12.1 63 9.8
2010-05-11 06:05:38 51°21.415 3°3.041 64.8 12.2 66 10.1
2010-05-11 06:05:43 51°21.421 3°3.066 66.4 12 70 10.3
2010-05-11 06:05:49 51°21.428 3°3.096 69.1 12.1 71 10.4
2010-05-11 06:05:54 51°21.433 3°3.122 71 12.1 73 10.2
2010-05-11 06:05:58 51°21.435 3°3.143 74.2 12 76 10.3
2010-05-11 06:06:03 51°21.44 3°3.168 74.9 12 78 10.6
2010-05-11 06:06:09 51°21.443 3°3.199 77 12.1 78 10.2
2010-05-11 06:06:13 51°21.445 3°3.221 78 12.2 79 10.7
2010-05-11 06:06:18 51°21.448 3°3.247 78.4 12.1 83 10.4
2010-05-11 06:06:23 51°21.45 3°3.274 80.7 12.1 79 10.5
2010-05-11 06:06:29 51°21.453 3°3.305 79.9 12 85 10.7
2010-05-11 06:06:33 51°21.455 3°3.327 81.5 12 82 10.7
2010-05-11 06:06:38 51°21.458 3°3.353 80.8 12 84 10.3
2010-05-11 06:06:43 51°21.459 3°3.38 82.1 12.2 81 10.3
2010-05-11 06:06:49 51°21.463 3°3.411 80.3 12 82 10.4
2010-05-11 06:06:53 51°21.463 3°3.433 82.6 12.2 84 10.2
2010-05-11 06:06:58 51°21.467 3°3.459 81.3 12.1 81 10.7
2010-05-11 06:07:03 51°21.468 3°3.486 81.7 12.1 85 10.3
2010-05-11 06:07:09 51°21.472 3°3.517 81.8 12.1 78 10.5
2010-05-11 06:07:14 51°21.472 3°3.545 81.5 12.4 89 10.5
2010-05-11 06:07:18 51°21.476 3°3.566 82.1 12.2 75 10.1
2010-05-11 06:07:23 51°21.477 3°3.592 81.5 12 89 10.5
2010-05-11 06:07:28 51°21.479 3°3.618 82.7 12.1 80 10
2010-05-11 06:07:34 51°21.482 3°3.65 81.2 12 84 10.3
2010-05-11 06:07:38 51°21.483 3°3.672 82.1 12 83 10.3
2010-05-11 06:07:43 51°21.486 3°3.698 81.1 11.9 83 10.6
2010-05-11 06:07:49 51°21.488 3°3.73 82.4 12.2 83 10.3
2010-05-11 06:07:54 51°21.491 3°3.756 81.5 12.1 81 10.5
2010-05-11 06:07:58 51°21.493 3°3.777 80.5 12 80 10.3
2010-05-11 06:08:03 51°21.496 3°3.803 79.4 12.1 80 10.5
2010-05-11 06:08:09 51°21.501 3°3.834 78.5 12.1 75 10
2010-05-11 06:08:13 51°21.503 3°3.856 77.9 12.3 81 10.6
2010-05-11 06:08:18 51°21.508 3°3.882 77 12.3 75 10.6
2010-05-11 06:08:23 51°21.511 3°3.909 77 12.2 77 10.2
2010-05-11 06:08:29 51°21.516 3°3.94 76.1 12.1 78 10.9
2010-05-11 06:08:33 51°21.519 3°3.961 75.7 12.2 75 10.3
2010-05-11 06:08:38 51°21.523 3°3.988 76.1 12.3 77 10.6
2010-05-11 06:08:43 51°21.528 3°4.014 75 12.2 75 10.6
2010-05-11 06:08:49 51°21.532 3°4.045 74.8 12.1 76 10.7
2010-05-11 06:08:53 51°21.535 3°4.066 75.5 12.3 78 10.6
2010-05-11 06:08:58 51°21.54 3°4.092 75.8 12.2 72 10.4
2010-05-11 06:09:03 51°21.543 3°4.119 74.7 12.1 80 10.4
2010-05-11 06:09:09 51°21.549 3°4.149 74.8 12 71 10.5
2010-05-11 06:09:13 51°21.552 3°4.17 75.3 12.1 79 10.4
2010-05-11 06:09:18 51°21.556 3°4.196 75.8 12.1 75 10
2010-05-11 06:09:23 51°21.56 3°4.222 75.5 12.1 75 10.7
2010-05-11 06:09:29 51°21.565 3°4.253 75 11.9 76 10.4
2010-05-11 06:09:34 51°21.57 3°4.278 76 12 75 10.3
2010-05-11 06:09:38 51°21.573 3°4.299 75.5 12.1 76 10.6
2010-05-11 06:09:43 51°21.577 3°4.325 75.6 12 76 10.5
2010-05-11 06:09:49 51°21.582 3°4.356 76 12.1 76 10.6
2010-05-11 06:09:54 51°21.586 3°4.382 75.8 12.2 75 10.5
2010-05-11 06:09:58 51°21.589 3°4.403 75.4 12 76 10.7
2010-05-11 06:10:03 51°21.593 3°4.429 75.6 12.1 76 10.5
2010-05-11 06:10:09 51°21.599 3°4.46 75.4 12.2 74 10.6
2010-05-11 06:10:14 51°21.602 3°4.487 75.4 12.2 78 10.9
2010-05-11 06:10:18 51°21.606 3°4.507 74.6 12.1 73 10.7
2010-05-11 06:10:23 51°21.61 3°4.533 75.1 12 78 10.4
2010-05-11 06:10:29 51°21.615 3°4.564 75.6 12.1 73 10.4
2010-05-11 06:10:33 51°21.619 3°4.585 74.4 12 77 10.4
2010-05-11 06:10:38 51°21.623 3°4.611 75.7 12.1 74 10.3
2010-05-11 06:10:43 51°21.627 3°4.637 75.6 12.3 78 10.4
2010-05-11 06:10:49 51°21.632 3°4.668 75.6 12.2 74 10.8
2010-05-11 06:10:53 51°21.636 3°4.689 74.8 11.9 78 10.5
2010-05-11 06:10:58 51°21.639 3°4.715 76 12.1 75 10.8
2010-05-11 06:11:03 51°21.644 3°4.74 74.8 12.1 75 10.4
2010-05-11 06:11:09 51°21.648 3°4.772 75.7 12.3 75 10.8
2010-05-11 06:11:13 51°21.653 3°4.793 74.6 12 76 10.6
2010-05-11 06:11:18 51°21.656 3°4.819 76 12 77 11
2010-05-11 06:11:23 51°21.661 3°4.844 75.4 12.1 74 10.5
2010-05-11 06:11:29 51°21.665 3°4.876 75.2 12.2 77 10.8
2010-05-11 06:11:34 51°21.671 3°4.901 75 12 73 10.3
2010-05-11 06:11:38 51°21.672 3°4.922 75.8 12.1 78 10.7
2010-05-11 06:11:43 51°21.678 3°4.947 74.8 12.1 72 10.6
2010-05-11 06:11:49 51°21.683 3°4.979 74.8 12.1 77 10.4
2010-05-11 06:11:54 51°21.688 3°5.004 74.8 12 72 10.6
2010-05-11 06:11:58 51°21.69 3°5.025 75.3 12.1 79 10.7
2010-05-11 06:12:03 51°21.695 3°5.051 75.6 12.1 71 10.9
2010-05-11 06:12:08 51°21.699 3°5.077 74.7 12.1 79 10.7
2010-05-11 06:12:13 51°21.703 3°5.103 76 11.9 71 10.5
2010-05-11 06:12:18 51°21.707 3°5.129 75.1 12 79 10.7
2010-05-11 06:12:23 51°21.712 3°5.154 75 12.2 72 10.7
2010-05-11 06:12:28 51°21.716 3°5.18 74.5 12.1 77 10.8
2010-05-11 06:12:34 51°21.721 3°5.211 74.8 11.9 74 10.7
2010-05-11 06:12:38 51°21.724 3°5.231 74.8 12 76 10.7
2010-05-11 06:12:43 51°21.729 3°5.257 75.1 12 74 10.5
2010-05-11 06:12:48 51°21.733 3°5.283 74.7 12 75 10.6
2010-05-11 06:12:53 51°21.737 3°5.308 75.1 12 76 10.7
2010-05-11 06:12:58 51°21.742 3°5.334 74.8 11.9 75 10.6
2010-05-11 06:13:03 51°21.744 3°5.36 75.2 11.8 77 10.5
2010-05-11 06:13:09 51°21.75 3°5.39 74.7 11.9 76 10.5
2010-05-11 06:13:13 51°21.752 3°5.412 76 12.1 74 10.7
2010-05-11 06:13:18 51°21.758 3°5.437 74.1 11.9 73 10.5
2010-05-11 06:13:23 51°21.761 3°5.462 75.3 11.8 78 10.3
2010-05-11 06:13:29 51°21.766 3°5.493 76 12 74 10.2
2010-05-11 06:13:33 51°21.77 3°5.514 74.7 12 76 10.3
2010-05-11 06:13:38 51°21.773 3°5.54 76 12.2 79 10.7
2010-05-11 06:13:43 51°21.779 3°5.565 74.7 11.7 74 10.5
2010-05-11 06:13:48 51°21.781 3°5.591 76.5 11.9 78 10.3
2010-05-11 06:13:54 51°21.787 3°5.621 75.2 12 72 10.3
2010-05-11 06:13:58 51°21.789 3°5.643 75.9 12.1 81 10.3
2010-05-11 06:14:03 51°21.795 3°5.668 75.6 12.1 72 10.5
2010-05-11 06:14:08 51°21.798 3°5.694 75.3 12 78 10.4
2010-05-11 06:14:14 51°21.804 3°5.724 75.1 11.9 73 10.1
2010-05-11 06:14:18 51°21.806 3°5.745 75 12 79 10.3
2010-05-11 06:14:22 51°21.81 3°5.765 75.6 11.9 72 10.3
2010-05-11 06:14:28 51°21.814 3°5.796 75.6 12.1 80 10.5
2010-05-11 06:14:34 51°21.82 3°5.827 75.9 12.1 72 10.5
2010-05-11 06:14:38 51°21.822 3°5.848 74.9 12 79 10.5
2010-05-11 06:14:43 51°21.826 3°5.874 76.3 11.9 74 10.6
2010-05-11 06:14:48 51°21.831 3°5.899 75.1 12 78 10.3
2010-05-11 06:14:53 51°21.834 3°5.925 76.4 12.1 73 10.2
2010-05-11 06:14:58 51°21.839 3°5.951 75.2 12.1 77 10.3
2010-05-11 06:15:03 51°21.843 3°5.976 75.6 11.9 72 10.2
2010-05-11 06:15:08 51°21.847 3°6.002 75.2 12.1 79 10.5
2010-05-11 06:15:14 51°21.853 3°6.033 75.3 12 72 10.2
2010-05-11 06:15:18 51°21.855 3°6.054 75.1 12.1 80 10.6
2010-05-11 06:15:23 51°21.86 3°6.079 75.5 12 71 10.5
2010-05-11 06:15:28 51°21.863 3°6.105 75.6 12.1 80 10.2
2010-05-11 06:15:34 51°21.87 3°6.136 75.9 12 71 10.6
2010-05-11 06:15:38 51°21.872 3°6.157 75.5 12 79 10.5
2010-05-11 06:15:42 51°21.875 3°6.177 75.7 12 74 10.5
2010-05-11 06:15:48 51°21.88 3°6.208 74.9 12.1 77 10.5
2010-05-11 06:15:54 51°21.884 3°6.24 75.6 12.1 77 11.2
2010-05-11 06:15:58 51°21.888 3°6.26 75.6 12 73 10.7
2010-05-11 06:16:03 51°21.891 3°6.286 75.5 12.1 78 10.8
2010-05-11 06:16:09 51°21.897 3°6.317 75.6 12.1 74 10.9
2010-05-11 06:16:13 51°21.9 3°6.338 75.6 12.1 77 10.7
2010-05-11 06:16:18 51°21.905 3°6.364 75.3 12.2 74 10.6
2010-05-11 06:16:23 51°21.908 3°6.39 74.9 12.2 76 11
2010-05-11 06:16:28 51°21.913 3°6.416 75 12.1 75 11
2010-05-11 06:16:34 51°21.918 3°6.447 75.5 12.1 76 10.9
2010-05-11 06:16:38 51°21.921 3°6.468 75.8 12.2 77 11
2010-05-11 06:16:43 51°21.926 3°6.494 74.6 12.1 76 11.1
2010-05-11 06:16:48 51°21.929 3°6.52 75.7 12.1 77 10.9
2010-05-11 06:16:54 51°21.935 3°6.551 75.4 12.1 74 10.9
2010-05-11 06:16:58 51°21.937 3°6.573 75.7 12.3 78 11.2
2010-05-11 06:17:02 51°21.942 3°6.593 75.1 12.1 74 11
2010-05-11 06:17:08 51°21.945 3°6.625 75.8 12.1 77 10.9
2010-05-11 06:17:13 51°21.95 3°6.651 76 12.2 75 10.7
2010-05-11 06:17:18 51°21.954 3°6.677 75.4 12.2 75 10.9
2010-05-11 06:17:23 51°21.959 3°6.703 74.9 12.1 75 11.1
2010-05-11 06:17:29 51°21.964 3°6.734 74.8 12.1 76 10.8
2010-05-11 06:17:33 51°21.967 3°6.755 75.3 12.3 77 10.7
2010-05-11 06:17:38 51°21.971 3°6.781 75.4 12.2 76 11.2
2010-05-11 06:17:43 51°21.975 3°6.807 75.8 12.1 76 11.1
2010-05-11 06:17:48 51°21.979 3°6.833 75.4 12.1 74 10.8
2010-05-11 06:17:53 51°21.983 3°6.859 75.1 12.1 77 11.2
2010-05-11 06:17:58 51°21.988 3°6.885 75.3 12.1 73 10.8
2010-05-11 06:18:03 51°21.991 3°6.911 75.3 12.2 77 10.9
2010-05-11 06:18:08 51°21.996 3°6.937 75.3 12.2 73 11.3
2010-05-11 06:18:14 51°22.001 3°6.969 74.8 12.2 78 11.2
2010-05-11 06:18:18 51°22.005 3°6.989 75.6 12.1 74 11.1
2010-05-11 06:18:23 51°22.008 3°7.015 75.1 12.2 77 10.8
2010-05-11 06:18:29 51°22.014 3°7.047 75.9 12.2 74 10.9
2010-05-11 06:18:34 51°22.017 3°7.073 75.1 12.1 78 11.2
2010-05-11 06:18:38 51°22.02 3°7.094 75.6 12.2 76 11
2010-05-11 06:18:43 51°22.025 3°7.12 75.6 12.1 75 11.2
2010-05-11 06:18:48 51°22.029 3°7.146 75.1 12.2 76 11
2010-05-11 06:18:54 51°22.034 3°7.178 75.4 12.3 75 11.2
2010-05-11 06:18:58 51°22.038 3°7.199 74.9 12.3 75 11.5
2010-05-11 06:19:03 51°22.042 3°7.225 75.1 12.2 75 11.3
2010-05-11 06:19:08 51°22.047 3°7.251 74.8 12.1 76 11.1
2010-05-11 06:19:14 51°22.051 3°7.282 75.5 12.3 75 11.3
2010-05-11 06:19:18 51°22.055 3°7.303 74.9 12.2 75 10.8
2010-05-11 06:19:23 51°22.058 3°7.33 75.7 12.2 76 11
2010-05-11 06:19:29 51°22.065 3°7.361 74.1 12.2 74 11.5
2010-05-11 06:19:33 51°22.068 3°7.382 74.2 12.2 77 11.2
2010-05-11 06:19:38 51°22.072 3°7.408 75.3 12.2 74 11.4
2010-05-11 06:19:43 51°22.077 3°7.434 74.8 12.3 77 11.3
2010-05-11 06:19:49 51°22.082 3°7.466 75.2 12.2 74 11.4
2010-05-11 06:19:53 51°22.085 3°7.486 74.6 12.1 78 11.4
2010-05-11 06:19:58 51°22.089 3°7.513 76 12.2 76 11.3
2010-05-11 06:20:03 51°22.094 3°7.539 75.3 12.3 76 11.2
2010-05-11 06:20:09 51°22.098 3°7.57 75.3 12.2 77 11.6
2010-05-11 06:20:13 51°22.101 3°7.591 75.5 12.1 75 11.2
2010-05-11 06:20:18 51°22.105 3°7.617 75.5 12.2 77 11.3
2010-05-11 06:20:23 51°22.11 3°7.644 75.4 12.3 74 11.4
2010-05-11 06:20:29 51°22.114 3°7.675 75.4 12.2 77 11.2
2010-05-11 06:20:33 51°22.118 3°7.696 75.6 12.2 74 11.6
2010-05-11 06:20:38 51°22.122 3°7.722 75.4 12.3 77 11.2
2010-05-11 06:20:43 51°22.126 3°7.749 76 12.3 73 11.4
2010-05-11 06:20:48 51°22.131 3°7.775 74.4 12.2 79 11.4
2010-05-11 06:20:53 51°22.134 3°7.801 76.5 12.2 73 11.2
2010-05-11 06:20:58 51°22.14 3°7.827 74.7 12.1 76 11.4
2010-05-11 06:21:03 51°22.142 3°7.853 76.4 12.1 76 11.5
2010-05-11 06:21:08 51°22.148 3°7.879 75.1 12.2 74 11.7
2010-05-11 06:21:14 51°22.152 3°7.91 75.4 12.1 76 11.2
2010-05-11 06:21:18 51°22.156 3°7.931 75.8 12.1 75 11.5
2010-05-11 06:21:23 51°22.16 3°7.957 75.6 12.1 76 11.4
2010-05-11 06:21:29 51°22.165 3°7.988 75.5 12.2 75 11.3
2010-05-11 06:21:33 51°22.168 3°8.009 75.4 11.8 75 11.2
2010-05-11 06:21:38 51°22.172 3°8.033 75.2 11.1 77 11.5
2010-05-11 06:21:43 51°22.176 3°8.055 75.6 10.4 75 11.5
2010-05-11 06:21:49 51°22.18 3°8.081 75.2 9.7 76 11.6
2010-05-11 06:21:53 51°22.182 3°8.096 75.4 9.1 76 11.4
2010-05-11 06:21:58 51°22.185 3°8.115 75.4 8.6 75 11.5
2010-05-11 06:22:03 51°22.188 3°8.132 75.2 8 75 11.7
2010-05-11 06:22:09 51°22.191 3°8.151 74 7.5 72 11.9
2010-05-11 06:22:13 51°22.195 3°8.162 70.7 7 68 11.7
2010-05-11 06:22:18 51°22.198 3°8.176 67.6 6.7 66 11.9
2010-05-11 06:22:23 51°22.203 3°8.188 64 6.3 60 11.8
2010-05-11 06:22:29 51°22.208 3°8.202 61.4 6 60 11.8
2010-05-11 06:22:33 51°22.212 3°8.21 58.8 5.8 55 11.9
2010-05-11 06:22:38 51°22.217 3°8.22 56.4 5.7 53 11.6
2010-05-11 06:22:43 51°22.222 3°8.231 54.6 5.8 50 11.4
2010-05-11 06:22:49 51°22.229 3°8.243 53.1 6 48 11.7
2010-05-11 06:22:53 51°22.233 3°8.251 51.6 6.3 48 11.9
2010-05-11 06:22:58 51°22.24 3°8.262 50.6 6.8 46 11.9